Time;durP1;ratioP1;P1;durP2;ratioP2;P2;SDS_P1;SDS_P2;PMS_P1;PMS_P2;Temp;Humidity;BMP_temperature;BMP_pressure;BME280_temperature;BME280_humidity;BME280_pressure;Samples;Min_cycle;Max_cycle;Signal;HPM_P1;HPM_P2
2022/10/30 00:02:10;;;;;;;16.58;7.25;;;;;;;-148.88;98.56;75541.63;5074655;28;20024;-87
2022/10/30 00:04:35;;;;;;;17.50;8.10;;;;;;;-148.88;98.32;75549.75;5075961;28;20028;-87
2022/10/30 00:07:00;;;;;;;19.48;8.20;;;;;;;-148.88;98.67;75543.66;5075884;28;20462;-87
2022/10/30 00:09:25;;;;;;;15.98;7.57;;;;;;;-148.88;98.96;75553.81;5075918;28;20032;-87
2022/10/30 00:11:51;;;;;;;15.65;7.20;;;;;;;-148.88;99.23;75557.88;5074412;28;20111;-86
2022/10/30 00:14:17;;;;;;;12.35;6.90;;;;;;;-148.88;99.63;75561.94;5076081;28;20020;-87
2022/10/30 00:16:42;;;;;;;20.17;7.93;;;;;;;-148.88;99.57;75568.03;5075931;28;20089;-87
2022/10/30 00:19:07;;;;;;;16.20;7.80;;;;;;;-148.88;99.61;75566.00;5074559;28;20025;-87
2022/10/30 00:21:33;;;;;;;14.95;7.55;;;;;;;-148.88;99.49;75572.09;5075332;28;20024;-87
2022/10/30 00:23:58;;;;;;;18.85;7.85;;;;;;;-148.88;99.49;75568.03;5075445;28;20029;-88
2022/10/30 00:26:24;;;;;;;17.75;7.97;;;;;;;-148.88;99.24;75570.03;5074775;28;20024;-87
2022/10/30 00:28:51;;;;;;;16.35;7.97;;;;;;;-148.88;98.71;75570.03;5074422;28;20028;-87
2022/10/30 00:31:16;;;;;;;17.92;7.78;;;;;;;-148.88;98.24;75563.97;5074049;28;20387;-87
2022/10/30 00:33:42;;;;;;;14.70;7.45;;;;;;;-148.88;97.54;75563.97;5074065;28;20024;-87
2022/10/30 00:36:07;;;;;;;18.73;7.35;;;;;;;-148.88;96.88;75561.94;5075963;28;20024;-89
2022/10/30 00:38:32;;;;;;;16.20;7.15;;;;;;;-148.88;96.07;75549.75;5074282;28;20378;-87
2022/10/30 00:40:58;;;;;;;16.67;7.15;;;;;;;-148.88;95.64;75547.72;5073708;28;20027;-87
2022/10/30 00:43:32;;;;;;;18.30;7.13;;;;;;;-148.88;95.35;75549.75;5074559;28;20036;-87
2022/10/30 00:46:04;;;;;;;13.27;6.60;;;;;;;-148.88;95.40;75541.63;5073305;28;20029;-87
2022/10/30 00:48:31;;;;;;;18.73;7.22;;;;;;;-148.88;94.97;75541.63;5073949;28;20050;-88
2022/10/30 00:50:58;;;;;;;14.60;6.85;;;;;;;-148.88;94.55;75543.66;5073961;28;20398;-87
2022/10/30 00:53:25;;;;;;;13.75;6.53;;;;;;;-148.88;94.03;75539.59;5073797;28;20043;-87
2022/10/30 00:55:58;;;;;;;18.70;7.25;;;;;;;-148.88;93.27;75537.56;5075287;28;20095;-87
2022/10/30 00:58:32;;;;;;;12.40;7.22;;;;;;;-148.88;92.14;75525.38;5074941;28;20032;-87
2022/10/30 01:01:01;;;;;;;14.57;6.55;;;;;;;-148.88;91.58;75527.41;5074924;28;20119;-87
2022/10/30 01:03:28;;;;;;;17.27;6.88;;;;;;;-148.88;91.29;75525.38;5073675;28;20425;-87
2022/10/30 01:05:57;;;;;;;11.35;6.45;;;;;;;-148.88;90.82;75523.34;5073257;28;20028;-87
2022/10/30 01:08:23;;;;;;;13.20;6.68;;;;;;;-148.88;90.68;75521.31;5073086;28;20125;-87
2022/10/30 01:10:49;;;;;;;19.30;6.78;;;;;;;-148.88;90.42;75525.38;5074561;28;20086;-87
2022/10/30 01:13:18;;;;;;;11.75;6.35;;;;;;;-148.88;90.05;75529.44;5074814;28;20062;-87
2022/10/30 01:16:04;;;;;;;11.35;5.82;;;;;;;-148.88;90.32;75529.44;5072921;28;20032;-87
2022/10/30 01:19:01;;;;;;;12.65;6.10;;;;;;;-148.88;90.63;75529.44;5074434;28;20486;-87
2022/10/30 01:21:49;;;;;;;14.68;6.30;;;;;;;-148.88;90.70;75537.56;5075019;28;20028;-88
2022/10/30 01:24:29;;;;;;;12.93;6.00;;;;;;;-148.88;90.89;75543.66;5074506;28;20033;-87
2022/10/30 01:27:23;;;;;;;12.75;5.70;;;;;;;-148.88;91.02;75549.75;5073920;28;20370;-88
2022/10/30 01:30:02;;;;;;;13.68;6.15;;;;;;;-148.88;90.37;75549.75;5074919;28;20037;-87
2022/10/30 01:32:35;;;;;;;8.98;5.85;;;;;;;-148.88;90.56;75549.75;5073170;28;20028;-87
2022/10/30 01:35:09;;;;;;;10.45;5.50;;;;;;;-148.88;90.78;75561.94;5074225;28;20082;-87
2022/10/30 01:37:46;;;;;;;13.77;5.93;;;;;;;-148.88;90.61;75566.00;5073507;28;20059;-87
2022/10/30 01:40:15;;;;;;;17.95;6.72;;;;;;;-148.88;90.98;75570.03;5073389;28;20035;-87
2022/10/30 01:42:56;;;;;;;24.58;8.65;;;;;;;-148.88;90.93;75574.13;5074088;28;20035;-88
2022/10/30 01:45:48;;;;;;;22.23;8.00;;;;;;;-148.88;90.77;75574.13;5073184;28;20024;-87
2022/10/30 01:48:27;;;;;;;21.30;7.75;;;;;;;-148.88;90.88;75572.09;5074785;28;20036;-88
2022/10/30 01:51:25;;;;;;;17.08;7.15;;;;;;;-148.88;91.09;75580.22;5072967;28;20102;-87
2022/10/30 01:53:58;;;;;;;16.08;6.35;;;;;;;-148.88;91.34;75582.22;5072743;28;20077;-87
2022/10/30 01:56:45;;;;;;;11.57;5.82;;;;;;;-148.88;90.70;75586.31;5074033;28;20029;-87
2022/10/30 01:59:30;;;;;;;11.52;5.20;;;;;;;-148.88;90.03;75578.19;5077578;28;20029;-87
2022/10/30 02:01:56;;;;;;;11.50;5.03;;;;;;;-148.88;89.65;75582.22;5077550;28;20040;-87
2022/10/30 02:04:22;;;;;;;19.63;5.63;;;;;;;-148.88;88.53;75580.22;5076993;28;20028;-87
2022/10/30 02:06:48;;;;;;;9.15;4.45;;;;;;;-148.88;88.28;75566.00;5076985;28;20073;-87
2022/10/30 02:09:15;;;;;;;8.40;4.53;;;;;;;-148.88;87.65;75563.97;5076330;28;20033;-87
2022/10/30 02:11:40;;;;;;;10.27;4.88;;;;;;;-148.88;87.84;75566.00;5076417;28;20555;-86
2022/10/30 02:14:08;;;;;;;7.95;4.50;;;;;;;-148.88;87.33;75557.88;5076416;28;20028;-87
2022/10/30 02:16:36;;;;;;;13.55;4.88;;;;;;;-148.88;86.65;75566.00;5077867;28;20093;-87
2022/10/30 02:19:02;;;;;;;11.50;4.15;;;;;;;-148.88;86.75;75566.00;5076657;28;20020;-87
2022/10/30 02:21:27;;;;;;;12.20;4.90;;;;;;;-148.88;86.35;75557.88;5078367;28;20025;-87
2022/10/30 02:23:52;;;;;;;11.18;4.60;;;;;;;-148.88;86.91;75559.91;5076766;28;20031;-88
2022/10/30 02:26:18;;;;;;;13.40;5.18;;;;;;;-148.88;86.94;75559.91;5076236;28;20389;-87
2022/10/30 02:28:43;;;;;;;12.63;5.57;;;;;;;-148.88;88.34;75561.94;5077705;28;20032;-87
2022/10/30 02:31:08;;;;;;;18.15;6.40;;;;;;;-148.88;90.31;75566.00;5077659;28;20348;-87
2022/10/30 02:33:34;;;;;;;13.43;5.45;;;;;;;-148.88;90.56;75570.03;5075884;28;20028;-87
2022/10/30 02:35:59;;;;;;;10.13;4.95;;;;;;;-148.88;89.73;75582.22;5077148;28;20017;-87
2022/10/30 02:38:24;;;;;;;12.88;4.72;;;;;;;-148.88;88.31;75582.22;5075367;28;20074;-87
2022/10/30 02:40:50;;;;;;;9.70;4.22;;;;;;;-148.88;87.75;75584.25;5076903;28;20025;-87
2022/10/30 02:43:15;;;;;;;8.18;4.32;;;;;;;-148.88;88.35;75584.25;5075556;28;20027;-87
2022/10/30 02:45:40;;;;;;;10.60;4.13;;;;;;;-148.88;87.18;75586.31;5075923;28;20206;-87
2022/10/30 02:48:06;;;;;;;16.27;4.80;;;;;;;-148.88;86.95;75590.34;5077440;28;20060;-87
2022/10/30 02:50:31;;;;;;;11.25;4.20;;;;;;;-148.88;86.94;75586.31;5080168;28;20032;-87
2022/10/30 02:52:58;;;;;;;13.60;4.32;;;;;;;-148.88;86.75;75590.34;5077573;28;20134;-85
2022/10/30 02:55:23;;;;;;;8.00;4.00;;;;;;;-148.88;86.51;75582.22;5075492;28;20111;-86
2022/10/30 02:57:48;;;;;;;6.72;3.97;;;;;;;-148.88;85.93;75582.22;5076188;28;20063;-86
2022/10/30 03:00:14;;;;;;;10.02;4.35;;;;;;;-148.88;84.81;75570.03;5076272;28;20032;-87
2022/10/30 03:02:39;;;;;;;11.98;4.65;;;;;;;-148.88;84.63;75561.94;5075853;28;20012;-84
2022/10/30 03:05:05;;;;;;;12.40;4.78;;;;;;;-148.88;84.40;75561.94;5075202;28;20490;-87
2022/10/30 03:07:30;;;;;;;10.90;4.22;;;;;;;-148.88;84.38;75557.88;5075827;28;20028;-87
2022/10/30 03:09:56;;;;;;;11.48;4.03;;;;;;;-148.88;83.63;75549.75;5074139;28;20493;-85
2022/10/30 03:12:21;;;;;;;12.52;4.60;;;;;;;-148.88;84.18;75553.81;5075286;28;20052;-87
2022/10/30 03:14:47;;;;;;;13.32;4.45;;;;;;;-148.88;84.26;75549.75;5076133;28;20020;-86
2022/10/30 03:17:12;;;;;;;10.80;5.10;;;;;;;-148.88;84.21;75547.72;5074848;28;20028;-86
2022/10/30 03:19:39;;;;;;;11.80;4.57;;;;;;;-148.88;84.34;75551.78;5075775;28;20020;-87
2022/10/30 03:22:05;;;;;;;11.82;4.90;;;;;;;-148.88;84.39;75555.84;5074680;28;20039;-86
2022/10/30 03:24:31;;;;;;;13.57;5.28;;;;;;;-148.88;85.59;75563.97;5074519;28;20059;-87
2022/10/30 03:26:56;;;;;;;13.65;5.78;;;;;;;-148.88;88.62;75568.03;5074453;28;20056;-86
2022/10/30 03:29:21;;;;;;;13.10;6.45;;;;;;;-148.88;90.49;75582.22;5076238;28;20031;-87
2022/10/30 03:31:47;;;;;;;15.32;6.53;;;;;;;-148.88;91.43;75588.34;5075248;28;20028;-86
2022/10/30 03:34:12;;;;;;;16.05;6.80;;;;;;;-148.88;92.34;75604.56;5076109;28;20031;-87
2022/10/30 03:36:37;;;;;;;13.43;6.60;;;;;;;-148.88;92.85;75604.56;5075341;28;20124;-86
2022/10/30 03:39:03;;;;;;;17.92;6.47;;;;;;;-148.88;92.87;75606.59;5074698;28;20036;-85
2022/10/30 03:41:29;;;;;;;19.60;6.88;;;;;;;-148.88;93.01;75614.72;5074621;28;20017;-87
2022/10/30 03:43:54;;;;;;;14.40;6.60;;;;;;;-148.88;93.26;75618.78;5076363;28;20035;-87
2022/10/30 03:46:19;;;;;;;13.32;6.75;;;;;;;-148.88;93.83;75633.00;5074662;28;20371;-85
2022/10/30 03:48:48;;;;;;;14.00;6.20;;;;;;;-148.88;94.10;75624.88;5090375;22;20052;-75
2022/10/30 03:51:14;;;;;;;16.58;6.35;;;;;;;-148.88;93.92;75628.94;5093076;28;20027;-75
2022/10/30 03:53:42;;;;;;;13.02;6.65;;;;;;;-148.88;94.33;75630.97;5093073;28;20032;-74
2022/10/30 03:56:08;;;;;;;11.98;6.43;;;;;;;-148.88;94.31;75635.03;5094865;28;20050;-75
2022/10/30 03:58:34;;;;;;;13.57;6.68;;;;;;;-148.88;94.75;75639.09;5093203;28;20389;-74
2022/10/30 04:01:04;;;;;;;12.13;6.95;;;;;;;-148.88;95.25;75641.13;5094205;28;20020;-75
2022/10/30 04:03:31;;;;;;;13.52;6.80;;;;;;;-148.88;95.40;75653.31;5094568;28;20020;-75
2022/10/30 04:05:56;;;;;;;13.10;6.57;;;;;;;-148.88;95.34;75641.13;5094322;28;20483;-75
2022/10/30 04:08:22;;;;;;;15.15;6.47;;;;;;;-148.88;95.63;75651.28;5094248;28;20035;-75
2022/10/30 04:10:47;;;;;;;16.52;6.57;;;;;;;-148.88;95.64;75651.28;5094102;28;20027;-74
2022/10/30 04:13:15;;;;;;;14.38;7.30;;;;;;;-148.88;95.89;75657.38;5094191;28;20046;-74
2022/10/30 04:15:41;;;;;;;10.88;6.28;;;;;;;-148.88;96.03;75667.53;5092635;28;20024;-75
2022/10/30 04:18:09;;;;;;;15.60;5.88;;;;;;;-148.88;95.29;75667.53;5092665;28;20030;-75
2022/10/30 04:20:34;;;;;;;14.55;5.80;;;;;;;-148.88;94.55;75669.56;5093025;28;20043;-75
2022/10/30 04:23:02;;;;;;;15.85;5.80;;;;;;;-148.88;93.67;75663.47;5093220;28;20482;-75
2022/10/30 04:25:28;;;;;;;14.02;5.22;;;;;;;-148.88;92.74;75655.34;5092255;28;20035;-75
2022/10/30 04:27:54;;;;;;;11.40;5.15;;;;;;;-148.88;92.54;75651.28;5093567;28;20020;-75
2022/10/30 04:30:20;;;;;;;13.73;5.72;;;;;;;-148.88;93.00;75659.41;5093502;28;20066;-75
2022/10/30 04:32:47;;;;;;;13.57;5.18;;;;;;;-148.88;93.48;75657.38;5092271;28;20024;-75
2022/10/30 04:35:13;;;;;;;13.32;4.78;;;;;;;-148.88;92.95;75659.41;5093456;28;20020;-75
2022/10/30 04:37:38;;;;;;;12.10;5.20;;;;;;;-148.88;92.88;75663.47;5093186;28;20146;-74
2022/10/30 04:40:04;;;;;;;11.25;5.38;;;;;;;-148.88;92.88;75663.47;5093339;28;20103;-75
2022/10/30 04:42:30;;;;;;;12.75;4.95;;;;;;;-148.88;92.38;75667.53;5091849;28;20024;-74
2022/10/30 04:44:55;;;;;;;11.48;4.80;;;;;;;-148.88;92.31;75663.47;5092119;28;20478;-74
2022/10/30 04:47:20;;;;;;;10.65;5.28;;;;;;;-148.88;91.98;75667.53;5093531;28;20024;-75
2022/10/30 04:49:46;;;;;;;10.93;4.97;;;;;;;-148.88;91.97;75663.47;5093328;28;20108;-75
2022/10/30 04:52:11;;;;;;;12.02;5.35;;;;;;;-148.88;92.12;75667.53;5093331;28;20035;-75
2022/10/30 04:54:36;;;;;;;16.95;5.05;;;;;;;-148.88;91.98;75675.66;5093372;28;20028;-75
2022/10/30 04:57:02;;;;;;;12.18;5.15;;;;;;;-148.88;92.24;75691.91;5093335;28;20173;-75
2022/10/30 04:59:27;;;;;;;16.55;5.18;;;;;;;-148.88;92.35;75695.97;5091958;28;20389;-75
2022/10/30 05:01:52;;;;;;;13.55;5.60;;;;;;;-148.88;92.80;75700.03;5093081;28;20027;-75
2022/10/30 05:04:18;;;;;;;15.80;5.55;;;;;;;-148.88;92.09;75698.00;5093152;28;20405;-75
2022/10/30 05:06:43;;;;;;;12.60;6.28;;;;;;;-148.88;92.08;75708.16;5092889;28;20024;-75
2022/10/30 05:09:08;;;;;;;19.02;7.85;;;;;;;-148.88;90.53;75704.09;5093208;28;20089;-74
2022/10/30 05:11:33;;;;;;;12.20;6.05;;;;;;;-148.88;90.16;75708.16;5092925;28;20415;-74
2022/10/30 05:13:59;;;;;;;14.52;5.53;;;;;;;-148.88;90.46;75708.16;5092699;28;20090;-75
2022/10/30 05:16:24;;;;;;;14.38;6.65;;;;;;;-148.88;91.63;75720.34;5092736;28;20024;-74
2022/10/30 05:18:49;;;;;;;15.23;6.18;;;;;;;-148.88;91.97;75724.41;5091378;28;20548;-74
2022/10/30 05:21:15;;;;;;;21.05;10.10;;;;;;;-148.88;92.50;75734.56;5092599;28;20028;-74
2022/10/30 05:23:40;;;;;;;20.42;8.82;;;;;;;-148.88;92.34;75732.53;5092717;28;20028;-74
2022/10/30 05:26:05;;;;;;;16.45;7.22;;;;;;;-148.88;92.51;75738.63;5092721;28;20494;-74
2022/10/30 05:28:31;;;;;;;29.13;10.85;;;;;;;-148.88;92.49;75734.56;5092622;28;20016;-75
2022/10/30 05:30:56;;;;;;;17.92;7.38;;;;;;;-148.88;92.73;75730.50;5092481;28;20103;-74
2022/10/30 05:33:21;;;;;;;19.85;8.20;;;;;;;-148.88;92.37;75736.59;5092354;28;20113;-75
2022/10/30 05:35:46;;;;;;;15.57;7.38;;;;;;;-148.88;92.02;75736.59;5092616;28;20034;-75
2022/10/30 05:38:12;;;;;;;13.13;6.38;;;;;;;-148.88;91.90;75736.59;5093327;28;20390;-75
2022/10/30 05:40:38;;;;;;;15.07;5.22;;;;;;;-148.88;91.84;75736.59;5092593;28;20519;-75
2022/10/30 05:43:05;;;;;;;11.88;5.28;;;;;;;-148.88;91.61;75736.59;5091293;28;20479;-75
2022/10/30 05:45:30;;;;;;;18.38;5.63;;;;;;;-148.88;91.40;75740.66;5092634;28;20107;-74
2022/10/30 05:47:57;;;;;;;11.68;5.57;;;;;;;-148.88;90.94;75738.63;5092674;28;20030;-74
2022/10/30 05:50:24;;;;;;;14.55;5.50;;;;;;;-148.88;91.40;75734.56;5093134;28;20032;-74
2022/10/30 05:52:54;;;;;;;16.02;5.38;;;;;;;-148.88;90.85;75736.59;5092613;28;20016;-74
2022/10/30 05:55:19;;;;;;;18.75;4.97;;;;;;;-148.88;91.07;75734.56;5092536;28;20035;-74
2022/10/30 05:57:44;;;;;;;15.63;5.53;;;;;;;-148.88;91.07;75730.50;5091201;28;20055;-74
2022/10/30 06:00:10;;;;;;;17.02;4.90;;;;;;;-148.88;90.70;75734.56;5092961;28;20081;-74
2022/10/30 06:02:36;;;;;;;15.38;6.07;;;;;;;-148.88;90.81;75736.59;5092625;28;20032;-73
2022/10/30 06:05:01;;;;;;;9.90;4.97;;;;;;;-148.88;90.73;75736.59;5092601;28;20453;-74
2022/10/30 06:07:26;;;;;;;11.75;5.40;;;;;;;-148.88;90.78;75740.66;5090921;28;20474;-74
2022/10/30 06:09:51;;;;;;;12.73;5.20;;;;;;;-148.88;90.60;75740.66;5092687;28;20032;-74
2022/10/30 06:12:17;;;;;;;8.15;5.30;;;;;;;-148.88;90.74;75736.59;5092592;28;20020;-74
2022/10/30 06:14:42;;;;;;;17.75;5.15;;;;;;;-148.88;89.78;75724.41;5092730;28;20494;-74
2022/10/30 06:17:07;;;;;;;12.68;6.15;;;;;;;-148.88;89.54;75728.47;5092805;28;20027;-74
2022/10/30 06:19:33;;;;;;;16.88;5.50;;;;;;;-148.88;89.65;75732.53;5093023;28;20048;-74
2022/10/30 06:21:58;;;;;;;12.43;5.35;;;;;;;-148.88;89.46;75732.53;5092824;28;20024;-74
2022/10/30 06:24:23;;;;;;;15.05;5.65;;;;;;;-148.88;89.97;75736.59;5092834;28;20020;-74
2022/10/30 06:26:49;;;;;;;14.63;4.72;;;;;;;-148.88;89.85;75744.72;5092939;28;20496;-74
2022/10/30 06:29:15;;;;;;;13.15;5.50;;;;;;;-148.88;90.15;75744.72;5092694;28;20020;-75
2022/10/30 06:31:40;;;;;;;13.95;5.43;;;;;;;-148.88;89.95;75732.53;5092636;28;20023;-74
2022/10/30 06:34:05;;;;;;;17.05;5.32;;;;;;;-148.88;89.23;75732.53;5092691;28;20024;-74
2022/10/30 06:36:31;;;;;;;15.70;5.88;;;;;;;-148.88;89.24;75740.66;5091342;28;20115;-74
2022/10/30 06:38:56;;;;;;;13.80;5.18;;;;;;;-148.88;89.50;75732.53;5092653;28;20055;-74
2022/10/30 06:41:24;;;;;;;10.98;5.00;;;;;;;-148.88;89.58;75740.66;5092423;28;20400;-74
2022/10/30 06:43:49;;;;;;;10.57;5.18;;;;;;;-148.88;89.62;75722.38;5092554;28;20077;-74
2022/10/30 06:46:14;;;;;;;13.57;4.82;;;;;;;-148.88;89.36;75718.31;5096240;28;20028;-74
2022/10/30 06:48:40;;;;;;;15.45;5.60;;;;;;;-148.88;88.81;75720.34;5096095;28;20059;-74
2022/10/30 06:51:05;;;;;;;12.82;5.28;;;;;;;-148.88;89.00;75712.22;5096209;28;20034;-74
2022/10/30 06:53:30;;;;;;;15.50;5.50;;;;;;;-148.88;88.63;75710.19;5096071;28;20024;-74
2022/10/30 06:56:01;;;;;;;14.65;5.72;;;;;;;-148.88;88.60;75708.16;5096029;28;20058;-74
2022/10/30 06:58:26;;;;;;;17.05;4.85;;;;;;;-148.88;88.60;75708.16;5096159;28;20085;-74
2022/10/30 07:00:52;;;;;;;14.10;4.75;;;;;;;-148.88;88.82;75708.16;5095829;28;20024;-74
2022/10/30 07:03:18;;;;;;;12.90;5.10;;;;;;;-148.88;88.98;75708.16;5094596;28;20028;-77
2022/10/30 07:05:43;;;;;;;14.20;4.90;;;;;;;-148.88;88.84;75691.91;5096151;28;20106;-74
2022/10/30 07:08:09;;;;;;;12.48;5.65;;;;;;;-148.88;88.74;75698.00;5096050;28;20040;-75
2022/10/30 07:10:34;;;;;;;18.30;5.32;;;;;;;-148.88;88.69;75691.91;5095690;28;20133;-74
2022/10/30 07:13:00;;;;;;;14.20;5.72;;;;;;;-148.88;88.58;75683.78;5095967;28;20012;-74
2022/10/30 07:15:25;;;;;;;12.57;4.70;;;;;;;-148.88;88.22;75677.69;5094405;28;20028;-74
2022/10/30 07:17:55;;;;;;;12.18;4.97;;;;;;;-148.88;88.43;75675.66;5095596;28;20051;-75
2022/10/30 07:20:22;;;;;;;12.35;5.28;;;;;;;-148.88;88.75;75669.56;5095499;28;20016;-74
2022/10/30 07:22:47;;;;;;;11.13;4.65;;;;;;;-148.88;87.82;75655.34;5095730;28;20020;-74
2022/10/30 07:25:12;;;;;;;11.93;5.43;;;;;;;-148.88;87.33;75649.25;5095707;28;20064;-74
2022/10/30 07:27:46;;;;;;;15.02;4.97;;;;;;;-148.88;87.64;75649.25;5095705;28;20016;-75
2022/10/30 07:30:12;;;;;;;;;;;;;;;-148.88;87.91;75649.25;5094795;28;20039;-74
2022/10/30 07:32:37;;;;;;;12.00;5.18;;;;;;;-148.88;88.10;75651.28;5094005;28;19915;-74
2022/10/30 07:35:03;;;;;;;15.02;5.57;;;;;;;-148.88;88.48;75655.34;5095283;28;20027;-74
2022/10/30 07:37:28;;;;;;;12.07;5.70;;;;;;;-148.88;87.66;75655.34;5095127;28;20016;-75
2022/10/30 07:39:54;;;;;;;22.67;8.80;;;;;;;-148.88;87.04;75653.31;5095189;28;20039;-74
2022/10/30 07:42:19;;;;;;;15.88;7.82;;;;;;;-148.88;87.55;75655.34;5095194;28;20031;-74
2022/10/30 07:44:46;;;;;;;18.77;6.90;;;;;;;-148.88;87.76;75651.28;5095004;28;20074;-74
2022/10/30 07:47:11;;;;;;;13.38;5.82;;;;;;;-148.88;88.46;75647.22;5095053;28;20020;-75
2022/10/30 07:49:37;;;;;;;11.23;5.03;;;;;;;-148.88;88.66;75651.28;5095188;28;20081;-75
2022/10/30 07:52:02;;;;;;;16.80;5.30;;;;;;;-148.88;88.60;75651.28;5095355;28;20035;-74
2022/10/30 07:54:28;;;;;;;9.85;5.10;;;;;;;-148.88;88.90;75645.19;5094769;28;20073;-74
2022/10/30 07:56:53;;;;;;;9.15;4.75;;;;;;;-148.88;88.90;75645.19;5094717;28;20062;-76
2022/10/30 07:59:18;;;;;;;10.60;4.63;;;;;;;-148.88;89.17;75647.22;5094854;28;20037;-75
2022/10/30 08:01:44;;;;;;;10.25;4.35;;;;;;;-148.88;88.90;75639.09;5094741;28;20064;-75
2022/10/30 08:04:12;;;;;;;9.88;4.38;;;;;;;-148.88;88.14;75643.16;5094664;28;20067;-74
2022/10/30 08:06:38;;;;;;;12.05;4.88;;;;;;;-148.88;87.55;75635.03;5094681;28;20020;-75
2022/10/30 08:09:04;;;;;;;9.35;4.93;;;;;;;-148.88;87.77;75630.97;5094853;28;20024;-75
2022/10/30 08:11:30;;;;;;;12.23;4.97;;;;;;;-148.88;88.29;75626.91;5094784;28;20043;-75
2022/10/30 08:13:55;;;;;;;15.40;5.20;;;;;;;-148.88;88.40;75622.84;5094525;28;20070;-74
2022/10/30 08:16:20;;;;;;;12.20;4.88;;;;;;;-148.88;87.75;75624.88;5094660;28;20042;-74
2022/10/30 08:18:48;;;;;;;11.90;4.93;;;;;;;-148.88;88.11;75618.78;5094902;28;20381;-75
2022/10/30 08:21:14;;;;;;;13.75;5.60;;;;;;;-148.88;87.74;75622.84;5094194;28;20031;-76
2022/10/30 08:23:39;;;;;;;15.35;5.82;;;;;;;-148.88;87.45;75614.72;5094463;28;20027;-75
2022/10/30 08:26:05;;;;;;;14.48;4.95;;;;;;;-148.88;87.46;75606.59;5094404;28;20031;-74
2022/10/30 08:28:31;;;;;;;15.10;5.40;;;;;;;-148.88;86.82;75596.44;5094331;28;20039;-75
2022/10/30 08:31:01;;;;;;;10.10;5.63;;;;;;;-148.88;86.81;75586.31;5094386;28;20066;-74
2022/10/30 08:33:27;;;;;;;15.40;5.75;;;;;;;-148.88;87.26;75586.31;5094251;28;20561;-74
2022/10/30 08:35:58;;;;;;;13.68;5.55;;;;;;;-148.88;87.88;75566.00;5093191;28;20047;-75
2022/10/30 08:38:24;;;;;;;11.23;5.50;;;;;;;-148.88;88.35;75553.81;5094626;28;20024;-75
2022/10/30 08:40:49;;;;;;;9.25;4.90;;;;;;;-148.88;86.96;75541.63;5094127;28;20053;-75
2022/10/30 08:43:15;;;;;;;12.50;4.82;;;;;;;-148.88;87.40;75523.34;5094653;28;20031;-75
2022/10/30 08:45:43;;;;;;;13.23;4.78;;;;;;;-148.88;88.10;75501.00;5094481;28;20517;-75
2022/10/30 08:48:11;;;;;;;12.23;4.82;;;;;;;-148.88;87.59;75488.81;5092821;28;20046;-75
2022/10/30 08:50:36;;;;;;;10.70;4.40;;;;;;;-148.88;85.14;75476.63;5093979;28;20474;-75
2022/10/30 08:53:03;;;;;;;14.98;5.35;;;;;;;-148.88;85.07;75452.25;5094129;28;20027;-75
2022/10/30 08:55:30;;;;;;;16.25;5.35;;;;;;;-148.88;85.13;75431.94;5094001;28;20028;-75
2022/10/30 08:57:55;;;;;;;14.57;5.00;;;;;;;-148.88;83.12;75411.63;5093949;28;20421;-75
2022/10/30 09:00:21;;;;;;;12.75;5.60;;;;;;;-148.88;83.87;75395.38;5093731;28;20493;-75
2022/10/30 09:02:46;;;;;;;11.35;5.20;;;;;;;-148.88;82.01;75379.13;5093657;28;20064;-75
2022/10/30 09:05:11;;;;;;;15.38;4.72;;;;;;;-148.88;78.83;75350.69;5092451;28;20020;-74
2022/10/30 09:07:37;;;;;;;12.60;4.53;;;;;;;-148.88;80.45;75338.50;5093592;28;20028;-75
2022/10/30 09:10:06;;;;;;;13.38;5.22;;;;;;;-148.88;80.17;75318.19;5093904;28;20102;-75
2022/10/30 09:12:31;;;;;;;8.73;4.65;;;;;;;-148.88;78.58;75301.94;5093499;28;20051;-75
2022/10/30 09:14:56;;;;;;;12.57;5.50;;;;;;;-148.88;76.33;75289.75;5093749;28;20059;-74
2022/10/30 09:17:22;;;;;;;9.98;5.00;;;;;;;-148.88;78.55;75273.53;5093734;28;20015;-75
2022/10/30 09:19:47;;;;;;;17.08;4.82;;;;;;;-148.88;76.21;75261.34;5093467;28;20072;-75
2022/10/30 09:22:12;;;;;;;12.32;4.78;;;;;;;-148.88;75.27;75245.09;5093507;28;20103;-75
2022/10/30 09:24:38;;;;;;;9.20;4.35;;;;;;;-148.88;74.81;75241.03;5093440;28;20375;-75
2022/10/30 09:27:04;;;;;;;14.23;4.43;;;;;;;-148.88;74.38;75224.78;5093362;28;20028;-75
2022/10/30 09:29:30;;;;;;;11.88;4.78;;;;;;;-148.88;74.14;75216.66;5093558;28;20023;-75
2022/10/30 09:31:56;;;;;;;16.02;5.03;;;;;;;-148.88;73.76;75210.56;5091948;28;20023;-75
2022/10/30 09:34:21;;;;;;;11.35;4.20;;;;;;;-148.88;73.59;75206.50;5093483;28;20027;-74
2022/10/30 09:36:48;;;;;;;16.55;4.85;;;;;;;-148.88;74.54;75204.47;5093398;28;20027;-75
2022/10/30 09:39:14;;;;;;;13.68;4.70;;;;;;;-148.88;75.59;75196.34;5093055;28;20031;-75
2022/10/30 09:42:01;;;;;;;10.27;4.60;;;;;;;-148.88;74.51;75190.25;5092912;28;20026;-75
2022/10/30 09:44:39;;;;;;;10.73;4.30;;;;;;;-148.88;74.46;75188.22;5093528;28;20113;-75
2022/10/30 09:47:17;;;;;;;14.45;4.65;;;;;;;-148.88;74.68;75176.03;5093163;28;20024;-75
2022/10/30 09:50:07;;;;;;;11.07;4.93;;;;;;;-148.88;76.66;75161.81;5091503;28;20528;-75
2022/10/30 09:52:42;;;;;;;13.80;4.55;;;;;;;-148.88;75.64;75149.63;5091603;28;20035;-75
2022/10/30 09:55:31;;;;;;;10.20;3.92;;;;;;;-148.88;75.53;75139.47;5093102;28;20103;-75
2022/10/30 09:58:06;;;;;;;16.42;4.75;;;;;;;-148.88;74.51;75149.63;5092943;28;20020;-74
2022/10/30 10:00:37;;;;;;;13.65;4.90;;;;;;;-148.88;74.92;75133.38;5091433;28;20020;-74
2022/10/30 10:03:26;;;;;;;12.70;4.60;;;;;;;-148.88;74.41;75119.16;5093019;28;20058;-76
2022/10/30 10:05:55;;;;;;;14.75;5.00;;;;;;;-148.88;73.03;75111.03;5093279;28;20016;-75
2022/10/30 10:08:31;;;;;;;11.65;4.30;;;;;;;-148.88;74.11;75090.72;5093026;28;20036;-75
2022/10/30 10:11:02;;;;;;;11.05;4.45;;;;;;;-148.88;72.32;75088.72;5092851;28;20482;-76
2022/10/30 10:13:40;;;;;;;12.38;4.88;;;;;;;-148.88;73.67;75074.50;5091561;28;20046;-75
2022/10/30 10:16:20;;;;;;;14.98;4.60;;;;;;;-148.88;73.09;75074.50;5092671;28;20062;-76
2022/10/30 10:19:03;;;;;;;15.32;4.45;;;;;;;-148.88;71.68;75062.31;5093291;28;20032;-75
2022/10/30 10:21:28;;;;;;;15.88;4.40;;;;;;;-148.88;70.75;75046.06;5096904;28;20032;-75
2022/10/30 10:23:59;;;;;;;12.57;4.55;;;;;;;-148.88;71.51;75037.94;5090350;28;20106;-75
2022/10/30 10:26:51;;;;;;;12.95;4.13;;;;;;;-148.88;70.03;75033.88;5089034;28;20473;-75
2022/10/30 10:29:31;;;;;;;12.52;4.57;;;;;;;-148.88;69.36;75015.59;5081003;28;20022;-76
2022/10/30 10:32:07;;;;;;;11.48;4.63;;;;;;;-148.88;69.63;74997.31;5092194;28;20013;-75
2022/10/30 10:34:44;;;;;;;12.60;4.82;;;;;;;-148.88;69.23;74972.94;5076453;28;20025;-75
2022/10/30 10:37:34;;;;;;;11.77;4.20;;;;;;;-148.88;66.98;74956.69;5076362;28;20052;-76
2022/10/30 10:40:33;;;;;;;13.15;4.22;;;;;;;-148.88;67.01;74936.41;5074752;28;20056;-76
2022/10/30 10:43:16;;;;;;;16.23;4.13;;;;;;;-148.88;66.57;74912.03;5076107;28;20483;-76
2022/10/30 10:46:07;;;;;;;12.82;4.78;;;;;;;-148.88;66.67;74879.53;5076531;28;20043;-75
2022/10/30 10:49:09;;;;;;;11.27;4.15;;;;;;;-148.88;65.29;74865.31;5080946;28;20077;-76
2022/10/30 10:51:39;;;;;;;12.18;4.18;;;;;;;-148.88;64.41;74879.53;5075735;28;20391;-75
2022/10/30 10:54:10;;;;;;;14.45;4.25;;;;;;;-148.88;64.74;74867.34;5075994;28;20020;-75
2022/10/30 10:56:38;;;;;;;12.65;4.40;;;;;;;-148.88;66.10;74845.00;5074413;28;20509;-75
2022/10/30 10:59:12;;;;;;;12.40;4.80;;;;;;;-148.88;65.56;74806.44;5074425;28;20031;-74
2022/10/30 11:01:39;;;;;;;10.95;4.47;;;;;;;-148.88;64.05;74782.06;5075974;28;20455;-74
2022/10/30 11:04:23;;;;;;;13.93;4.70;;;;;;;-148.88;62.75;74792.22;5075574;28;20483;-75
2022/10/30 11:06:51;;;;;;;10.82;4.82;;;;;;;-148.88;62.09;74778.00;5075885;28;20127;-75
2022/10/30 11:09:19;;;;;;;11.38;4.57;;;;;;;-148.88;62.46;74773.94;5075562;28;20020;-75
2022/10/30 11:11:46;;;;;;;14.02;3.95;;;;;;;-148.88;62.52;74761.75;5075399;28;20052;-75
2022/10/30 11:14:16;;;;;;;11.00;4.38;;;;;;;-148.88;62.45;74757.69;5075394;28;20020;-74
2022/10/30 11:16:50;;;;;;;12.70;4.55;;;;;;;-148.88;60.84;74765.81;5075448;28;20505;-75